createdAt,value
2023-03-26T00:00:33.405Z,10.90
2023-03-26T00:01:33.869Z,13.80
2023-03-26T00:02:33.415Z,12.20
2023-03-26T00:03:33.351Z,12.70
2023-03-26T00:04:33.310Z,12.60
2023-03-26T00:05:33.278Z,12.20
2023-03-26T00:06:33.260Z,10.90
2023-03-26T00:07:33.223Z,10.30
2023-03-26T00:08:33.230Z,12.40
2023-03-26T00:09:33.183Z,11.30
2023-03-26T00:10:33.167Z,13.90
2023-03-26T00:11:33.119Z,13.20
2023-03-26T00:12:33.117Z,12.60
2023-03-26T00:13:33.100Z,12.50
2023-03-26T00:14:33.046Z,10.80
2023-03-26T00:15:33.022Z,13.10
2023-03-26T00:16:33.033Z,14.50
2023-03-26T00:17:32.999Z,14.70
2023-03-26T00:18:32.938Z,15.30
2023-03-26T00:19:32.936Z,12.20
2023-03-26T00:20:32.896Z,15.00
2023-03-26T00:21:32.880Z,11.00
2023-03-26T00:22:32.836Z,13.30
2023-03-26T00:23:32.817Z,12.50
2023-03-26T00:24:32.787Z,11.00
2023-03-26T00:25:32.773Z,10.90
2023-03-26T00:26:32.748Z,11.80
2023-03-26T00:27:32.704Z,12.10
2023-03-26T00:28:32.693Z,11.50
2023-03-26T00:29:32.658Z,11.50
2023-03-26T00:30:32.693Z,13.20
2023-03-26T00:31:32.607Z,10.00
2023-03-26T00:32:32.650Z,12.00
2023-03-26T00:33:32.554Z,10.40
2023-03-26T00:34:32.534Z,11.70
2023-03-26T00:35:32.556Z,8.90
2023-03-26T00:36:32.482Z,11.90
2023-03-26T00:37:32.457Z,10.90
2023-03-26T00:38:32.436Z,9.60
2023-03-26T00:39:32.404Z,9.70
2023-03-26T00:40:32.384Z,9.80
2023-03-26T00:41:32.351Z,10.60
2023-03-26T00:42:32.329Z,11.30
2023-03-26T00:43:32.300Z,10.50
2023-03-26T00:44:32.287Z,10.00
2023-03-26T00:45:32.253Z,11.90
2023-03-26T00:46:32.333Z,13.90
2023-03-26T00:47:32.216Z,9.90
2023-03-26T00:48:44.375Z,10.30
2023-03-26T00:49:32.153Z,9.80
2023-03-26T00:50:32.136Z,9.70
2023-03-26T00:51:32.116Z,11.40
2023-03-26T00:52:32.076Z,10.50
2023-03-26T00:53:32.049Z,9.80
2023-03-26T00:54:32.041Z,12.20
2023-03-26T00:55:31.993Z,11.10
2023-03-26T00:56:32.008Z,11.00
2023-03-26T00:57:35.979Z,10.30
2023-03-26T00:58:31.926Z,11.00
2023-03-26T00:59:31.896Z,13.90
2023-03-26T01:00:31.871Z,11.20
2023-03-26T01:01:31.876Z,9.00
2023-03-26T01:02:31.891Z,10.20
2023-03-26T01:03:31.953Z,8.50
2023-03-26T01:04:32.264Z,10.60
2023-03-26T01:05:31.745Z,9.30
2023-03-26T01:06:31.722Z,9.70
2023-03-26T01:07:31.712Z,9.90
2023-03-26T01:08:31.674Z,11.00
2023-03-26T01:09:31.637Z,9.50
2023-03-26T01:10:31.612Z,7.60
2023-03-26T01:11:31.586Z,10.70
2023-03-26T01:12:31.568Z,10.10
2023-03-26T01:13:31.545Z,9.20
2023-03-26T01:14:31.535Z,10.10
2023-03-26T01:15:31.552Z,9.10
2023-03-26T01:16:31.463Z,6.50
2023-03-26T01:17:31.453Z,8.60
2023-03-26T01:18:31.425Z,9.50
2023-03-26T01:19:31.386Z,11.00
2023-03-26T01:20:31.359Z,8.70
2023-03-26T01:21:31.337Z,11.10
2023-03-26T01:22:31.317Z,10.00
2023-03-26T01:23:31.308Z,12.00
2023-03-26T01:24:31.256Z,8.90
2023-03-26T01:25:31.236Z,8.80
2023-03-26T01:26:31.201Z,9.30
2023-03-26T01:27:31.178Z,9.20
2023-03-26T01:28:31.150Z,8.40
2023-03-26T01:29:31.125Z,7.90
2023-03-26T01:30:31.104Z,11.00
2023-03-26T01:31:31.070Z,9.10
2023-03-26T01:32:31.139Z,7.90
2023-03-26T01:33:31.066Z,11.10
2023-03-26T01:34:31.007Z,9.30
2023-03-26T01:35:30.990Z,8.30
2023-03-26T01:36:30.949Z,7.80
2023-03-26T01:37:30.916Z,10.10
2023-03-26T01:38:30.892Z,12.50
2023-03-26T01:39:30.899Z,11.50
2023-03-26T01:40:30.871Z,10.20
2023-03-26T01:41:30.815Z,10.10
2023-03-26T01:42:30.793Z,11.90
2023-03-26T01:43:30.763Z,11.00
2023-03-26T01:44:30.755Z,11.20
2023-03-26T01:45:30.720Z,9.20
2023-03-26T01:46:30.764Z,8.00
2023-03-26T01:47:30.667Z,10.20
2023-03-26T01:48:30.639Z,10.50
2023-03-26T01:49:30.611Z,11.60
2023-03-26T01:50:30.590Z,10.10
2023-03-26T01:51:30.586Z,12.10
2023-03-26T01:52:30.535Z,11.50
2023-03-26T01:53:30.524Z,11.10
2023-03-26T01:54:30.496Z,13.40
2023-03-26T01:55:30.481Z,12.00
2023-03-26T01:56:30.489Z,12.30
2023-03-26T01:57:30.407Z,9.60
2023-03-26T01:58:30.385Z,9.40
2023-03-26T01:59:30.362Z,10.20
2023-03-26T02:00:30.341Z,7.70
2023-03-26T02:01:30.471Z,10.50
2023-03-26T02:02:30.421Z,11.60
2023-03-26T02:03:30.405Z,11.10
2023-03-26T02:04:30.231Z,14.60
2023-03-26T02:05:30.229Z,12.40
2023-03-26T02:06:30.183Z,11.30
2023-03-26T02:07:30.155Z,17.00
2023-03-26T02:08:30.132Z,12.60
2023-03-26T02:09:30.096Z,13.70
2023-03-26T02:10:30.088Z,12.50
2023-03-26T02:11:35.486Z,14.20
2023-03-26T02:12:30.026Z,16.40
2023-03-26T02:13:29.998Z,13.60
2023-03-26T02:14:29.982Z,11.90
2023-03-26T02:15:29.960Z,14.70
2023-03-26T02:16:29.941Z,17.90
2023-03-26T02:17:29.945Z,17.50
2023-03-26T02:18:29.872Z,14.20
2023-03-26T02:19:29.843Z,14.80
2023-03-26T02:20:29.818Z,14.90
2023-03-26T02:21:29.792Z,14.30
2023-03-26T02:22:29.779Z,11.80
2023-03-26T02:23:29.753Z,12.50
2023-03-26T02:24:29.714Z,15.80
2023-03-26T02:25:29.691Z,16.70
2023-03-26T02:26:29.677Z,18.70
2023-03-26T02:27:29.663Z,18.10
2023-03-26T02:28:29.617Z,16.10
2023-03-26T02:29:29.593Z,12.90
2023-03-26T02:30:29.760Z,15.90
2023-03-26T02:31:29.571Z,20.30
2023-03-26T02:32:29.632Z,15.90
2023-03-26T02:33:29.489Z,15.60
2023-03-26T02:34:29.474Z,17.60
2023-03-26T02:35:29.499Z,17.30
2023-03-26T02:36:29.580Z,17.70
2023-03-26T02:37:29.377Z,18.10
2023-03-26T02:38:29.360Z,14.20
2023-03-26T02:39:29.334Z,19.70
2023-03-26T02:40:29.307Z,19.10
2023-03-26T02:41:29.283Z,18.20
2023-03-26T02:42:29.264Z,18.50
2023-03-26T02:43:29.244Z,20.30
2023-03-26T02:44:29.203Z,20.70
2023-03-26T02:45:29.223Z,17.60
2023-03-26T02:46:29.205Z,16.30
2023-03-26T02:47:29.141Z,19.50
2023-03-26T02:48:29.103Z,21.90
2023-03-26T02:49:29.075Z,16.10
2023-03-26T02:50:29.051Z,18.20
2023-03-26T02:51:29.031Z,17.10
2023-03-26T02:52:29.014Z,22.30
2023-03-26T02:53:28.976Z,21.00
2023-03-26T02:54:28.952Z,18.90
2023-03-26T02:55:28.927Z,23.80
2023-03-26T02:56:28.909Z,17.80
2023-03-26T02:57:28.881Z,19.80
2023-03-26T02:58:28.850Z,17.50
2023-03-26T02:59:28.843Z,22.40
2023-03-26T03:00:28.799Z,19.50
2023-03-26T03:01:28.832Z,19.70
2023-03-26T03:02:28.863Z,26.50
2023-03-26T03:03:28.742Z,19.40
2023-03-26T03:04:28.697Z,21.30
2023-03-26T03:05:28.673Z,21.50
2023-03-26T03:06:28.647Z,19.30
2023-03-26T03:07:28.617Z,21.10
2023-03-26T03:08:28.638Z,19.70
2023-03-26T03:09:28.563Z,18.30
2023-03-26T03:10:28.556Z,23.70
2023-03-26T03:11:28.516Z,19.60
2023-03-26T03:12:28.499Z,19.70
2023-03-26T03:13:28.484Z,21.10
2023-03-26T03:14:28.442Z,19.50
2023-03-26T03:15:28.434Z,17.40
2023-03-26T03:16:28.411Z,22.10
2023-03-26T03:17:28.415Z,19.10
2023-03-26T03:18:28.342Z,20.70
2023-03-26T03:19:28.317Z,23.90
2023-03-26T03:20:28.304Z,18.20
2023-03-26T03:21:28.267Z,19.90
2023-03-26T03:22:28.247Z,21.90
2023-03-26T03:23:28.213Z,20.50
2023-03-26T03:24:28.196Z,23.00
2023-03-26T03:25:28.173Z,22.70
2023-03-26T03:26:28.146Z,20.80
2023-03-26T03:27:28.136Z,22.20
2023-03-26T03:28:28.095Z,23.70
2023-03-26T03:29:28.065Z,24.20
2023-03-26T03:30:28.043Z,21.20
2023-03-26T03:31:28.075Z,21.80
2023-03-26T03:32:28.067Z,21.70
2023-03-26T03:33:27.964Z,25.80
2023-03-26T03:34:27.954Z,21.30
2023-03-26T03:35:27.974Z,25.20
2023-03-26T03:36:28.009Z,23.40
2023-03-26T03:37:27.864Z,24.30
2023-03-26T03:38:27.838Z,22.80
2023-03-26T03:39:27.827Z,28.00
2023-03-26T03:40:27.793Z,18.20
2023-03-26T03:41:27.759Z,27.00
2023-03-26T03:42:27.761Z,20.70
2023-03-26T03:43:27.717Z,21.40
2023-03-26T03:44:27.686Z,27.80
2023-03-26T03:45:27.664Z,23.30
2023-03-26T03:46:27.693Z,25.90
2023-03-26T03:47:27.721Z,25.10
2023-03-26T03:48:27.589Z,22.90
2023-03-26T03:49:27.559Z,23.50
2023-03-26T03:50:27.542Z,22.40
2023-03-26T03:51:27.510Z,20.20
2023-03-26T03:52:27.486Z,25.10
2023-03-26T03:53:27.454Z,26.70
2023-03-26T03:54:27.436Z,29.20
2023-03-26T03:55:27.412Z,28.90
2023-03-26T03:56:27.381Z,22.40
2023-03-26T03:57:27.355Z,23.40
2023-03-26T03:58:27.333Z,21.80
2023-03-26T03:59:27.305Z,23.70
2023-03-26T04:00:27.289Z,23.10
2023-03-26T04:01:27.252Z,26.20
2023-03-26T04:02:27.387Z,27.40
2023-03-26T04:03:34.022Z,20.00
2023-03-26T04:04:27.258Z,28.00
2023-03-26T04:05:27.152Z,24.50
2023-03-26T04:06:27.126Z,26.00
2023-03-26T04:07:27.103Z,32.20
2023-03-26T04:08:27.075Z,21.40
2023-03-26T04:09:27.059Z,26.30
2023-03-26T04:10:27.039Z,31.70
2023-03-26T04:11:27.004Z,21.40
2023-03-26T04:12:26.972Z,23.30
2023-03-26T04:13:26.962Z,28.60
2023-03-26T04:14:26.929Z,28.30
2023-03-26T04:15:26.897Z,29.50
2023-03-26T04:16:26.894Z,24.00
2023-03-26T04:17:26.912Z,25.50
2023-03-26T04:18:26.822Z,25.70
2023-03-26T04:19:26.820Z,23.10
2023-03-26T04:20:26.784Z,26.10
2023-03-26T04:21:26.753Z,22.30
2023-03-26T04:22:26.723Z,26.10
2023-03-26T04:23:26.762Z,25.80
2023-03-26T04:24:26.676Z,21.70
2023-03-26T04:25:26.645Z,28.30
2023-03-26T04:26:26.614Z,23.50
2023-03-26T04:27:26.592Z,19.80
2023-03-26T04:28:26.561Z,22.00
2023-03-26T04:29:26.550Z,27.30
2023-03-26T04:30:26.518Z,25.20
2023-03-26T04:31:26.542Z,24.20
2023-03-26T04:32:26.681Z,23.70
2023-03-26T04:33:26.442Z,24.00
2023-03-26T04:34:26.406Z,24.30
2023-03-26T04:35:26.468Z,22.70
2023-03-26T04:36:26.361Z,28.00
2023-03-26T04:37:26.334Z,27.40
2023-03-26T04:38:26.315Z,23.80
2023-03-26T04:39:26.288Z,30.40
2023-03-26T04:40:26.261Z,20.50
2023-03-26T04:41:26.248Z,24.40
2023-03-26T04:42:26.211Z,24.10
2023-03-26T04:43:26.188Z,26.00
2023-03-26T04:44:26.161Z,26.10
2023-03-26T04:45:26.132Z,25.10
2023-03-26T04:46:26.148Z,25.60
2023-03-26T04:47:26.120Z,25.50
2023-03-26T04:48:26.053Z,25.90
2023-03-26T04:49:26.030Z,28.00
2023-03-26T04:50:26.000Z,29.40
2023-03-26T04:51:26.000Z,28.60
2023-03-26T04:52:25.957Z,27.00
2023-03-26T04:53:25.930Z,26.40
2023-03-26T04:54:25.905Z,28.50
2023-03-26T04:55:25.885Z,26.60
2023-03-26T04:56:25.848Z,23.90
2023-03-26T04:57:25.826Z,28.40
2023-03-26T04:58:25.800Z,33.70
2023-03-26T04:59:25.775Z,26.30
2023-03-26T05:00:25.748Z,31.50
2023-03-26T05:01:25.792Z,27.30
2023-03-26T05:02:25.732Z,29.40
2023-03-26T05:03:25.685Z,29.90
2023-03-26T05:04:25.722Z,24.80
2023-03-26T05:05:25.626Z,34.10
2023-03-26T05:06:25.594Z,24.20
2023-03-26T05:07:25.594Z,26.40
2023-03-26T05:08:25.543Z,27.20
2023-03-26T05:09:25.530Z,26.30
2023-03-26T05:10:25.496Z,29.80
2023-03-26T05:11:25.476Z,28.10
2023-03-26T05:12:25.437Z,26.90
2023-03-26T05:13:25.421Z,30.30
2023-03-26T05:14:25.385Z,30.20
2023-03-26T05:15:25.367Z,29.20
2023-03-26T05:16:25.356Z,32.90
2023-03-26T05:17:25.377Z,28.00
2023-03-26T05:18:25.284Z,27.10
2023-03-26T05:19:25.265Z,27.80
2023-03-26T05:20:25.230Z,28.20
2023-03-26T05:21:25.214Z,31.70
2023-03-26T05:22:25.232Z,27.30
2023-03-26T05:23:25.181Z,26.20
2023-03-26T05:24:25.135Z,26.70
2023-03-26T05:25:25.109Z,28.30
2023-03-26T05:26:25.085Z,28.60
2023-03-26T05:27:25.060Z,32.00
2023-03-26T05:28:25.029Z,26.70
2023-03-26T05:29:25.011Z,29.20
2023-03-26T05:30:24.987Z,26.50
2023-03-26T05:31:24.957Z,26.30
2023-03-26T05:32:24.963Z,23.20
2023-03-26T05:33:25.004Z,33.60
2023-03-26T05:34:24.886Z,27.60
2023-03-26T05:35:24.883Z,25.50
2023-03-26T05:36:24.825Z,23.90
2023-03-26T05:37:24.803Z,22.40
2023-03-26T05:38:24.773Z,28.20
2023-03-26T05:39:24.781Z,22.70
2023-03-26T05:40:24.727Z,29.60
2023-03-26T05:41:24.707Z,28.30
2023-03-26T05:42:24.722Z,29.40
2023-03-26T05:43:24.650Z,28.70
2023-03-26T05:44:24.622Z,27.90
2023-03-26T05:45:24.599Z,23.50
2023-03-26T05:46:24.607Z,23.60
2023-03-26T05:47:24.573Z,34.60
2023-03-26T05:48:24.528Z,26.30
2023-03-26T05:49:24.500Z,30.10
2023-03-26T05:50:24.477Z,28.40
2023-03-26T05:51:24.474Z,24.00
2023-03-26T05:52:24.421Z,25.10
2023-03-26T05:53:24.401Z,26.80
2023-03-26T05:54:24.373Z,29.30
2023-03-26T05:55:24.373Z,27.70
2023-03-26T05:56:24.320Z,28.40
2023-03-26T05:57:24.297Z,26.60
2023-03-26T05:58:24.276Z,25.30
2023-03-26T05:59:24.246Z,27.40
2023-03-26T06:00:24.224Z,28.70
2023-03-26T06:01:24.193Z,24.60
2023-03-26T06:02:24.235Z,21.60
2023-03-26T06:03:24.341Z,25.70
2023-03-26T06:04:24.252Z,26.40
2023-03-26T06:05:24.093Z,26.70
2023-03-26T06:06:24.061Z,27.20
2023-03-26T06:07:24.043Z,25.70
2023-03-26T06:08:24.014Z,26.70
2023-03-26T06:09:23.990Z,23.30
2023-03-26T06:10:23.964Z,25.50
2023-03-26T06:11:23.963Z,25.80
2023-03-26T06:12:23.918Z,28.40
2023-03-26T06:13:23.891Z,30.40
2023-03-26T06:14:23.865Z,27.10
2023-03-26T06:15:23.838Z,26.30
2023-03-26T06:16:27.066Z,24.90
2023-03-26T06:17:23.789Z,22.20
2023-03-26T06:18:23.789Z,30.00
2023-03-26T06:19:23.734Z,27.00
2023-03-26T06:20:23.708Z,32.40
2023-03-26T06:21:23.693Z,23.30
2023-03-26T06:22:23.682Z,24.50
2023-03-26T06:23:23.634Z,27.60
2023-03-26T06:24:23.632Z,29.10
2023-03-26T06:25:23.586Z,25.40
2023-03-26T06:26:23.552Z,24.90
2023-03-26T06:27:23.566Z,21.60
2023-03-26T06:28:23.505Z,28.10
2023-03-26T06:29:23.484Z,27.00
2023-03-26T06:30:23.464Z,20.10
2023-03-26T06:31:23.483Z,24.70
2023-03-26T06:32:23.450Z,25.30
2023-03-26T06:33:24.611Z,25.90
2023-03-26T06:34:23.361Z,27.70
2023-03-26T06:35:23.334Z,25.60
2023-03-26T06:36:23.316Z,25.80
2023-03-26T06:37:23.327Z,23.20
2023-03-26T06:38:23.257Z,22.50
2023-03-26T06:39:23.238Z,28.60
2023-03-26T06:40:23.209Z,23.30
2023-03-26T06:41:23.181Z,24.80
2023-03-26T06:42:32.141Z,26.50
2023-03-26T06:43:23.164Z,28.70
2023-03-26T06:44:23.112Z,25.80
2023-03-26T06:45:23.091Z,23.40
2023-03-26T06:46:23.116Z,22.60
2023-03-26T06:47:23.072Z,23.90
2023-03-26T06:48:23.010Z,25.00
2023-03-26T06:49:22.985Z,26.70
2023-03-26T06:50:22.950Z,23.30
2023-03-26T06:51:22.939Z,26.70
2023-03-26T06:52:22.910Z,26.10
2023-03-26T06:53:22.881Z,29.70
2023-03-26T06:54:22.859Z,21.80
2023-03-26T06:55:22.845Z,23.70
2023-03-26T06:56:22.801Z,28.30
2023-03-26T06:57:22.785Z,24.70
2023-03-26T06:58:22.758Z,23.90
2023-03-26T06:59:22.757Z,25.10
2023-03-26T07:00:22.726Z,29.40
2023-03-26T07:01:22.734Z,27.60
2023-03-26T07:02:22.687Z,24.60
2023-03-26T07:03:22.640Z,26.30
2023-03-26T07:04:22.658Z,21.60
2023-03-26T07:05:22.842Z,21.90
2023-03-26T07:06:22.555Z,29.70
2023-03-26T07:07:22.530Z,24.50
2023-03-26T07:08:24.479Z,25.60
2023-03-26T07:09:22.483Z,22.20
2023-03-26T07:10:22.461Z,27.30
2023-03-26T07:11:22.438Z,22.30
2023-03-26T07:12:22.408Z,25.60
2023-03-26T07:13:22.381Z,28.50
2023-03-26T07:14:22.353Z,29.20
2023-03-26T07:15:22.403Z,24.70
2023-03-26T07:16:22.424Z,26.00
2023-03-26T07:17:22.281Z,25.30
2023-03-26T07:18:22.252Z,25.60
2023-03-26T07:19:22.235Z,24.40
2023-03-26T07:20:22.286Z,23.30
2023-03-26T07:21:22.192Z,28.40
2023-03-26T07:22:22.471Z,26.30
2023-03-26T07:23:22.133Z,25.70
2023-03-26T07:24:22.102Z,28.70
2023-03-26T07:25:22.091Z,25.40
2023-03-26T07:26:22.061Z,28.00
2023-03-26T07:27:22.031Z,26.30
2023-03-26T07:28:22.007Z,27.30
2023-03-26T07:29:21.988Z,24.00
2023-03-26T07:30:21.953Z,24.10
2023-03-26T07:31:22.005Z,27.00
2023-03-26T07:32:21.939Z,27.70
2023-03-26T07:33:21.888Z,21.20
2023-03-26T07:34:21.861Z,23.70
2023-03-26T07:35:21.886Z,26.80
2023-03-26T07:36:21.823Z,22.50
2023-03-26T07:37:21.784Z,23.80
2023-03-26T07:38:21.754Z,23.90
2023-03-26T07:39:21.738Z,25.60
2023-03-26T07:40:21.834Z,24.90
2023-03-26T07:41:21.679Z,25.40
2023-03-26T07:42:21.651Z,27.70
2023-03-26T07:43:21.634Z,25.70
2023-03-26T07:44:21.602Z,26.90
2023-03-26T07:45:21.581Z,27.80
2023-03-26T07:46:21.587Z,26.50
2023-03-26T07:47:21.577Z,21.00
2023-03-26T07:48:21.503Z,23.50
2023-03-26T07:49:21.505Z,25.50
2023-03-26T07:50:21.551Z,22.90
2023-03-26T07:51:21.427Z,24.60
2023-03-26T07:52:21.403Z,28.40
2023-03-26T07:53:21.384Z,28.10
2023-03-26T07:54:21.355Z,27.40
2023-03-26T07:55:21.541Z,21.70
2023-03-26T07:56:21.386Z,24.00
2023-03-26T07:57:21.326Z,24.60
2023-03-26T07:58:21.274Z,24.90
2023-03-26T07:59:21.230Z,22.20
2023-03-26T08:00:21.249Z,23.20
2023-03-26T08:01:21.184Z,22.10
2023-03-26T08:02:21.220Z,28.80
2023-03-26T08:03:21.329Z,25.90
2023-03-26T08:04:24.903Z,20.90
2023-03-26T08:05:21.087Z,22.20
2023-03-26T08:06:21.050Z,27.80
2023-03-26T08:07:21.033Z,23.10
2023-03-26T08:08:21.010Z,19.60
2023-03-26T08:09:20.983Z,27.20
2023-03-26T08:10:20.956Z,24.30
2023-03-26T08:11:20.936Z,26.30
2023-03-26T08:12:20.908Z,27.60
2023-03-26T08:13:20.885Z,26.60
2023-03-26T08:14:20.855Z,28.30
2023-03-26T08:15:20.832Z,25.50
2023-03-26T08:16:20.830Z,27.10
2023-03-26T08:17:20.781Z,26.70
2023-03-26T08:18:20.755Z,26.00
2023-03-26T08:19:20.833Z,25.00
2023-03-26T08:20:20.705Z,26.80
2023-03-26T08:21:20.688Z,21.80
2023-03-26T08:22:20.671Z,25.60
2023-03-26T08:23:20.631Z,23.20
2023-03-26T08:24:20.609Z,24.90
2023-03-26T08:25:20.583Z,24.00
2023-03-26T08:26:20.558Z,25.80
2023-03-26T08:27:20.534Z,24.80
2023-03-26T08:28:20.503Z,21.80
2023-03-26T08:29:20.483Z,21.40
2023-03-26T08:30:20.463Z,24.60
2023-03-26T08:31:20.514Z,22.80
2023-03-26T08:32:20.410Z,25.80
2023-03-26T08:33:20.385Z,25.10
2023-03-26T08:34:20.361Z,28.20
2023-03-26T08:35:20.384Z,21.80
2023-03-26T08:36:20.308Z,26.30
2023-03-26T08:37:20.279Z,21.20
2023-03-26T08:38:20.264Z,21.80
2023-03-26T08:39:20.235Z,23.40
2023-03-26T08:40:20.214Z,25.20
2023-03-26T08:41:20.180Z,22.70
2023-03-26T08:42:20.166Z,24.30
2023-03-26T08:43:20.128Z,24.30
2023-03-26T08:44:20.108Z,21.90
2023-03-26T08:45:20.092Z,21.00
2023-03-26T08:46:20.074Z,23.00
2023-03-26T08:47:20.037Z,21.30
2023-03-26T08:48:20.024Z,24.00
2023-03-26T08:49:19.987Z,23.50
2023-03-26T08:50:19.963Z,25.30
2023-03-26T08:51:19.961Z,22.30
2023-03-26T08:52:19.913Z,22.60
2023-03-26T08:53:19.877Z,22.80
2023-03-26T08:54:19.879Z,21.80
2023-03-26T08:55:19.840Z,19.40
2023-03-26T08:56:19.817Z,24.00
2023-03-26T08:57:19.790Z,28.20
2023-03-26T08:58:19.767Z,21.50
2023-03-26T08:59:19.734Z,19.60
2023-03-26T09:00:19.730Z,20.40
2023-03-26T09:01:19.760Z,19.50
2023-03-26T09:02:19.664Z,22.70
2023-03-26T09:03:19.640Z,17.30
2023-03-26T09:04:19.771Z,23.00
2023-03-26T09:05:19.595Z,23.20
2023-03-26T09:06:19.566Z,20.40
2023-03-26T09:07:19.562Z,19.60
2023-03-26T09:08:19.518Z,22.80
2023-03-26T09:09:19.603Z,21.00
2023-03-26T09:10:19.482Z,23.40
2023-03-26T09:11:19.441Z,22.40
2023-03-26T09:12:19.426Z,24.30
2023-03-26T09:13:19.389Z,20.80
2023-03-26T09:14:19.370Z,21.30
2023-03-26T09:15:19.351Z,18.70
2023-03-26T09:16:19.351Z,23.20
2023-03-26T09:17:19.290Z,23.90
2023-03-26T09:18:19.277Z,20.40
2023-03-26T09:19:19.255Z,22.00
2023-03-26T09:20:19.222Z,21.70
2023-03-26T09:21:19.192Z,24.20
2023-03-26T09:22:19.171Z,20.40
2023-03-26T09:23:19.216Z,23.70
2023-03-26T09:24:19.133Z,21.00
2023-03-26T09:25:19.100Z,22.80
2023-03-26T09:26:19.080Z,22.60
2023-03-26T09:27:19.056Z,20.90
2023-03-26T09:28:19.033Z,23.00
2023-03-26T09:29:19.009Z,19.50
2023-03-26T09:30:18.980Z,24.50
2023-03-26T09:31:18.987Z,23.50
2023-03-26T09:32:18.927Z,20.70
2023-03-26T09:33:18.900Z,24.40
2023-03-26T09:34:18.879Z,25.40
2023-03-26T09:35:18.885Z,20.80
2023-03-26T09:36:18.834Z,20.80
2023-03-26T09:37:18.841Z,18.60
2023-03-26T09:38:18.788Z,17.70
2023-03-26T09:39:18.776Z,19.10
2023-03-26T09:40:18.763Z,22.60
2023-03-26T09:41:18.711Z,19.30
2023-03-26T09:42:18.692Z,21.20
2023-03-26T09:43:18.662Z,21.90
2023-03-26T09:44:18.646Z,19.50
2023-03-26T09:45:18.622Z,22.20
2023-03-26T09:46:18.669Z,19.40
2023-03-26T09:47:18.601Z,22.20
2023-03-26T09:48:18.540Z,20.00
2023-03-26T09:49:18.517Z,21.60
2023-03-26T09:50:18.486Z,20.70
2023-03-26T09:51:18.465Z,22.70
2023-03-26T09:52:18.440Z,18.90
2023-03-26T09:53:18.424Z,20.20
2023-03-26T09:54:18.396Z,23.20
2023-03-26T09:55:18.391Z,21.50
2023-03-26T09:56:18.338Z,20.30
2023-03-26T09:57:18.435Z,23.00
2023-03-26T09:58:18.297Z,18.10
2023-03-26T09:59:18.268Z,21.10
2023-03-26T10:00:18.245Z,20.30
2023-03-26T10:01:18.298Z,23.60
2023-03-26T10:02:18.199Z,26.70
2023-03-26T10:03:18.191Z,24.00
2023-03-26T10:04:18.155Z,19.70
2023-03-26T10:05:18.113Z,20.70
2023-03-26T10:06:18.091Z,21.40
2023-03-26T10:07:18.069Z,22.30
2023-03-26T10:08:18.047Z,21.10
2023-03-26T10:09:18.017Z,22.50
2023-03-26T10:10:18.002Z,23.00
2023-03-26T10:11:17.996Z,26.00
2023-03-26T10:12:17.941Z,20.30
2023-03-26T10:13:17.992Z,17.60
2023-03-26T10:14:17.901Z,21.80
2023-03-26T10:15:17.876Z,22.60
2023-03-26T10:16:17.873Z,17.80
2023-03-26T10:17:17.812Z,26.40
2023-03-26T10:18:29.443Z,21.00
2023-03-26T10:19:17.994Z,24.50
2023-03-26T10:20:17.830Z,21.90
2023-03-26T10:21:17.729Z,20.30
2023-03-26T10:22:17.715Z,21.40
2023-03-26T10:23:17.671Z,19.80
2023-03-26T10:24:17.651Z,20.20
2023-03-26T10:25:17.616Z,24.30
2023-03-26T10:26:17.596Z,21.80
2023-03-26T10:27:17.597Z,24.60
2023-03-26T10:28:17.554Z,24.20
2023-03-26T10:29:17.540Z,20.00
2023-03-26T10:30:17.497Z,18.80
2023-03-26T10:31:17.495Z,17.40
2023-03-26T10:32:17.450Z,19.10
2023-03-26T10:33:17.418Z,19.90
2023-03-26T10:34:28.863Z,20.70
2023-03-26T10:35:17.419Z,16.00
2023-03-26T10:36:17.367Z,18.30
2023-03-26T10:37:17.319Z,19.90
2023-03-26T10:38:17.309Z,19.10
2023-03-26T10:39:37.237Z,19.50
2023-03-26T10:40:17.253Z,21.60
2023-03-26T10:41:17.226Z,15.80
2023-03-26T10:42:17.215Z,19.10
2023-03-26T10:43:17.194Z,18.40
2023-03-26T10:44:17.152Z,18.40
2023-03-26T10:45:17.128Z,16.30
2023-03-26T10:46:17.127Z,18.10
2023-03-26T10:47:17.079Z,19.00
2023-03-26T10:48:17.057Z,18.40
2023-03-26T10:49:17.028Z,15.50
2023-03-26T10:50:23.296Z,20.50
2023-03-26T10:51:16.977Z,17.60
2023-03-26T10:52:16.957Z,20.50
2023-03-26T10:53:16.933Z,17.50
2023-03-26T10:54:16.909Z,16.00
2023-03-26T10:55:16.875Z,17.80
2023-03-26T10:56:16.854Z,16.20
2023-03-26T10:57:16.858Z,15.10
2023-03-26T10:58:16.824Z,15.90
2023-03-26T10:59:16.845Z,16.20
2023-03-26T11:00:16.756Z,16.00
2023-03-26T11:01:16.751Z,15.40
2023-03-26T11:02:16.716Z,16.00
2023-03-26T11:03:16.730Z,15.00
2023-03-26T11:04:16.666Z,16.10
2023-03-26T11:05:16.659Z,16.00
2023-03-26T11:06:16.609Z,14.70
2023-03-26T11:07:16.580Z,15.60
2023-03-26T11:08:16.570Z,13.70
2023-03-26T11:09:16.538Z,16.90
2023-03-26T11:10:16.524Z,13.90
2023-03-26T11:11:16.486Z,15.30
2023-03-26T11:12:26.288Z,17.00
2023-03-26T11:13:16.442Z,16.80
2023-03-26T11:14:24.449Z,15.20
2023-03-26T11:15:16.425Z,15.50
2023-03-26T11:16:16.475Z,18.00
2023-03-26T11:17:39.425Z,13.30
2023-03-26T11:18:16.379Z,14.20
2023-03-26T11:19:16.292Z,17.70
2023-03-26T11:20:16.293Z,15.70
2023-03-26T11:21:18.787Z,14.00
2023-03-26T11:22:16.223Z,14.40
2023-03-26T11:23:16.337Z,16.50
2023-03-26T11:24:16.177Z,15.60
2023-03-26T11:25:16.154Z,15.80
2023-03-26T11:26:16.128Z,17.10
2023-03-26T11:27:17.017Z,15.50
2023-03-26T11:28:16.074Z,17.50
2023-03-26T11:29:32.393Z,17.70
2023-03-26T11:30:16.028Z,14.10
2023-03-26T11:31:16.072Z,17.60
2023-03-26T11:32:15.977Z,13.50
2023-03-26T11:33:15.954Z,13.80
2023-03-26T11:34:15.926Z,16.10
2023-03-26T11:35:15.906Z,16.50
2023-03-26T11:36:15.903Z,13.70
2023-03-26T11:37:15.852Z,16.00
2023-03-26T11:38:15.864Z,14.40
2023-03-26T11:39:15.825Z,13.30
2023-03-26T11:40:15.791Z,15.60
2023-03-26T11:41:15.759Z,14.50
2023-03-26T11:42:15.743Z,13.80
2023-03-26T11:43:15.719Z,14.60
2023-03-26T11:44:15.695Z,14.20
2023-03-26T11:45:15.658Z,11.80
2023-03-26T11:46:15.662Z,12.40
2023-03-26T11:47:15.648Z,17.70
2023-03-26T11:48:15.589Z,11.60
2023-03-26T11:49:15.571Z,13.10
2023-03-26T11:50:15.555Z,14.50
2023-03-26T11:51:15.516Z,11.10
2023-03-26T11:52:15.494Z,12.10
2023-03-26T11:53:15.530Z,9.80
2023-03-26T11:54:15.457Z,12.20
2023-03-26T11:55:15.418Z,16.30
2023-03-26T11:56:15.398Z,13.60
2023-03-26T11:57:15.462Z,12.20
2023-03-26T11:58:15.348Z,13.10
2023-03-26T11:59:15.325Z,13.00
2023-03-26T12:00:15.299Z,11.50
2023-03-26T12:01:15.273Z,9.40
2023-03-26T12:02:15.265Z,11.40
2023-03-26T12:03:15.285Z,11.80
2023-03-26T12:04:15.241Z,9.30
2023-03-26T12:05:15.195Z,9.70
2023-03-26T12:06:15.147Z,8.40
2023-03-26T12:07:15.121Z,11.10
2023-03-26T12:08:15.105Z,8.20
2023-03-26T12:09:15.076Z,9.50
2023-03-26T12:10:18.112Z,9.40
2023-03-26T12:11:15.019Z,9.80
2023-03-26T12:12:15.001Z,7.70
2023-03-26T12:13:14.972Z,10.30
2023-03-26T12:14:14.956Z,8.10
2023-03-26T12:15:14.929Z,9.40
2023-03-26T12:16:14.929Z,8.40
2023-03-26T12:17:14.888Z,8.50
2023-03-26T12:18:14.848Z,9.00
2023-03-26T12:19:14.858Z,8.80
2023-03-26T12:20:14.804Z,7.30
2023-03-26T12:21:14.780Z,10.10
2023-03-26T12:22:14.757Z,10.40
2023-03-26T12:23:14.725Z,10.10
2023-03-26T12:24:14.703Z,10.50
2023-03-26T12:25:14.679Z,9.90
2023-03-26T12:26:14.660Z,10.10
2023-03-26T12:27:14.630Z,9.50
2023-03-26T12:28:14.610Z,8.00
2023-03-26T12:29:14.586Z,8.90
2023-03-26T12:30:14.557Z,9.10
2023-03-26T12:31:14.583Z,8.80
2023-03-26T12:32:14.504Z,8.50
2023-03-26T12:33:14.561Z,8.70
2023-03-26T12:34:14.466Z,9.20
2023-03-26T12:35:14.463Z,10.40
2023-03-26T12:36:14.406Z,7.60
2023-03-26T12:37:14.380Z,8.20
2023-03-26T12:38:14.366Z,6.90
2023-03-26T12:39:16.838Z,9.10
2023-03-26T12:40:18.168Z,9.30
2023-03-26T12:44:42.140Z,7.90
2023-03-26T12:44:44.871Z,11.60
2023-03-26T12:44:49.467Z,7.60
2023-03-26T12:44:54.131Z,9.10
2023-03-26T12:45:14.190Z,10.80
2023-03-26T12:47:57.602Z,9.90
2023-03-26T12:47:59.338Z,9.30
2023-03-26T12:48:14.217Z,9.30
2023-03-26T12:49:14.186Z,8.00
2023-03-26T12:50:14.065Z,9.50
2023-03-26T12:51:14.066Z,7.50
2023-03-26T12:52:14.010Z,10.10
2023-03-26T12:53:13.989Z,8.00
2023-03-26T12:54:13.959Z,10.50
2023-03-26T12:55:13.955Z,6.00